Time;durP1;ratioP1;P1;durP2;ratioP2;P2;SDS_P1;SDS_P2;PMS_P1;PMS_P2;Temp;Humidity;BMP_temperature;BMP_pressure;BME280_temperature;BME280_humidity;BME280_pressure;Samples;Min_cycle;Max_cycle;Signal;HPM_P1;HPM_P2
2022/02/21 00:00:28;;;;;;;1.65;0.93;;;9.80;70.10;;;;;;4901770;29;20208;-73
2022/02/21 00:03:00;;;;;;;4.25;1.35;;;9.70;71.30;;;;;;4904372;29;20272;-74
2022/02/21 00:05:28;;;;;;;1.20;1.02;;;9.60;72.60;;;;;;4902480;29;20625;-75
2022/02/21 00:07:55;;;;;;;2.88;0.93;;;9.50;75.00;;;;;;4900429;29;20210;-74
2022/02/21 00:10:22;;;;;;;3.53;0.90;;;9.50;76.80;;;;;;4900487;29;20686;-75
2022/02/21 00:12:49;;;;;;;1.90;0.85;;;9.40;78.30;;;;;;4904198;29;20359;-74
2022/02/21 00:15:20;;;;;;;3.65;1.05;;;9.30;79.40;;;;;;4903348;29;20243;-75
2022/02/21 00:17:47;;;;;;;2.40;1.10;;;9.30;80.90;;;;;;4905570;29;20210;-75
2022/02/21 00:20:14;;;;;;;1.88;1.00;;;9.30;81.10;;;;;;4906348;29;20244;-75
2022/02/21 00:22:43;;;;;;;1.52;0.90;;;9.30;82.30;;;;;;4917008;29;20242;-75
2022/02/21 00:25:10;;;;;;;0.82;0.60;;;9.30;84.30;;;;;;4919260;29;20205;-75
2022/02/21 00:27:37;;;;;;;3.53;1.23;;;9.20;86.10;;;;;;4919098;29;20222;-75
2022/02/21 00:30:06;;;;;;;2.28;0.85;;;9.10;87.90;;;;;;4919631;29;20190;-74
2022/02/21 00:32:33;;;;;;;3.65;0.90;;;9.10;89.00;;;;;;4917418;29;20233;-75
2022/02/21 00:35:00;;;;;;;2.70;0.80;;;9.10;89.00;;;;;;4902017;29;20604;-74
2022/02/21 00:37:27;;;;;;;1.05;1.02;;;9.10;89.70;;;;;;4901700;29;20241;-76
2022/02/21 00:39:55;;;;;;;1.95;1.20;;;9.10;89.00;;;;;;4900298;29;20247;-76
2022/02/21 00:42:24;;;;;;;5.57;1.13;;;9.10;89.10;;;;;;4900596;29;20238;-75
2022/02/21 00:44:55;;;;;;;2.90;1.33;;;9.10;89.10;;;;;;4906285;29;20225;-75
2022/02/21 00:47:22;;;;;;;3.80;1.60;;;9.20;89.10;;;;;;4910106;29;20325;-76
2022/02/21 00:49:49;;;;;;;1.92;1.13;;;9.10;90.60;;;;;;4906807;29;20217;-75
2022/02/21 00:52:16;;;;;;;2.30;1.10;;;9.00;91.00;;;;;;4902146;29;20246;-74
2022/02/21 00:54:43;;;;;;;2.42;1.00;;;9.10;90.90;;;;;;4908976;29;20221;-74
2022/02/21 00:57:11;;;;;;;4.63;1.25;;;9.10;91.40;;;;;;4900888;29;20310;-77
2022/02/21 00:59:38;;;;;;;3.03;1.15;;;9.10;91.90;;;;;;4909593;29;20211;-76
2022/02/21 01:02:05;;;;;;;3.70;1.05;;;9.10;92.10;;;;;;4907081;29;20654;-75
2022/02/21 01:04:32;;;;;;;4.57;1.42;;;9.00;92.50;;;;;;4903239;29;20701;-74
2022/02/21 01:06:59;;;;;;;1.98;1.27;;;9.00;93.00;;;;;;4907586;29;20215;-74
2022/02/21 01:09:26;;;;;;;2.72;1.10;;;9.00;93.10;;;;;;4899155;29;20280;-74
2022/02/21 01:11:53;;;;;;;5.22;1.33;;;9.00;93.10;;;;;;4897944;29;20588;-74
2022/02/21 01:14:21;;;;;;;6.53;1.52;;;9.00;92.00;;;;;;4900275;29;20221;-75
2022/02/21 01:16:48;;;;;;;7.93;1.60;;;9.10;90.30;;;;;;4902896;29;20596;-74
2022/02/21 01:19:15;;;;;;;4.15;1.27;;;9.10;89.50;;;;;;4900352;29;20737;-75
2022/02/21 01:21:42;;;;;;;4.40;1.42;;;9.20;86.50;;;;;;4899096;29;20310;-75
2022/02/21 01:24:09;;;;;;;2.50;1.02;;;9.30;83.80;;;;;;4900343;29;20213;-75
2022/02/21 01:26:36;;;;;;;3.65;1.30;;;9.30;83.60;;;;;;4900461;29;20267;-74
2022/02/21 01:29:03;;;;;;;4.82;1.85;;;9.40;82.20;;;;;;4898340;29;20218;-74
2022/02/21 01:31:31;;;;;;;7.88;1.40;;;9.40;83.00;;;;;;4897858;29;20239;-74
2022/02/21 01:33:58;;;;;;;3.85;1.23;;;9.30;83.80;;;;;;4898674;29;20215;-75
2022/02/21 01:36:25;;;;;;;3.97;1.42;;;9.30;81.80;;;;;;4898890;29;20241;-74
2022/02/21 01:38:52;;;;;;;4.32;0.80;;;9.40;81.80;;;;;;4899295;29;20246;-74
2022/02/21 01:41:19;;;;;;;2.63;1.40;;;9.40;80.90;;;;;;4897651;29;20248;-75
2022/02/21 01:43:47;;;;;;;2.92;1.20;;;9.50;79.30;;;;;;4898666;29;20211;-75
2022/02/21 01:46:14;;;;;;;2.67;1.00;;;9.60;76.90;;;;;;4898791;29;20231;-74
2022/02/21 01:48:42;;;;;;;5.88;1.15;;;9.60;74.90;;;;;;4899292;29;20716;-74
2022/02/21 01:51:10;;;;;;;4.45;1.50;;;9.70;74.60;;;;;;4904808;29;20259;-76
2022/02/21 01:53:37;;;;;;;2.47;1.00;;;9.80;74.00;;;;;;4909345;29;20223;-74
2022/02/21 01:56:04;;;;;;;2.33;0.93;;;9.80;74.10;;;;;;4917740;29;20215;-74
2022/02/21 01:58:31;;;;;;;7.30;1.23;;;9.70;74.60;;;;;;4920542;29;20215;-75
2022/02/21 02:00:58;;;;;;;6.00;1.75;;;9.70;73.80;;;;;;4920159;29;20238;-75
2022/02/21 02:03:25;;;;;;;1.92;1.00;;;9.80;73.30;;;;;;4920542;29;20230;-75
2022/02/21 02:05:54;;;;;;;2.90;1.27;;;9.80;73.10;;;;;;4912439;29;20211;-74
2022/02/21 02:08:21;;;;;;;4.10;1.00;;;9.90;72.10;;;;;;4904707;29;20215;-75
2022/02/21 02:10:48;;;;;;;6.18;1.20;;;9.90;70.80;;;;;;4902582;29;20702;-75
2022/02/21 02:13:15;;;;;;;4.20;0.90;;;10.00;69.70;;;;;;4902401;29;20257;-74
2022/02/21 02:15:42;;;;;;;3.20;1.38;;;10.10;68.10;;;;;;4902689;29;20219;-75
2022/02/21 02:18:09;;;;;;;2.35;0.60;;;10.10;67.70;;;;;;4903329;29;20240;-75
2022/02/21 02:20:36;;;;;;;3.58;0.85;;;10.20;66.50;;;;;;4904133;29;20309;-74
2022/02/21 02:23:06;;;;;;;4.30;0.98;;;10.20;66.50;;;;;;4904376;29;20250;-75
2022/02/21 02:25:33;;;;;;;3.58;0.82;;;10.20;67.70;;;;;;4905584;29;20236;-75
2022/02/21 02:28:00;;;;;;;1.08;0.77;;;10.00;69.10;;;;;;4907720;29;20304;-74
2022/02/21 02:30:27;;;;;;;2.40;0.70;;;9.90;70.80;;;;;;4907988;29;20206;-75
2022/02/21 02:32:54;;;;;;;3.83;0.90;;;9.80;71.60;;;;;;4911553;29;20306;-74
2022/02/21 02:35:21;;;;;;;2.10;0.70;;;9.80;72.70;;;;;;4903552;29;20339;-76
2022/02/21 02:37:48;;;;;;;2.28;0.90;;;9.70;74.30;;;;;;4900878;29;20242;-74
2022/02/21 02:40:17;;;;;;;3.65;0.90;;;9.60;76.90;;;;;;4909471;29;20259;-74
2022/02/21 02:42:43;;;;;;;0.60;0.60;;;9.60;79.20;;;;;;4901543;29;20748;-74
2022/02/21 02:45:11;;;;;;;2.92;0.90;;;9.50;81.00;;;;;;4900675;29;20224;-74
2022/02/21 02:47:37;;;;;;;3.70;0.75;;;9.40;82.90;;;;;;4900996;29;20212;-74
2022/02/21 02:50:06;;;;;;;3.90;0.80;;;9.40;85.60;;;;;;4902696;29;20206;-74
2022/02/21 02:52:33;;;;;;;8.05;1.08;;;9.30;89.20;;;;;;4907828;29;20234;-74
2022/02/21 02:55:00;;;;;;;3.90;1.00;;;9.20;91.50;;;;;;4905414;29;20270;-73
2022/02/21 02:57:28;;;;;;;3.67;0.90;;;8.80;87.50;;;;;;4901248;29;20279;-74
2022/02/21 02:59:55;;;;;;;1.38;0.60;;;7.40;81.80;;;;;;4901150;29;20216;-73
2022/02/21 03:02:22;;;;;;;1.45;0.70;;;6.00;88.70;;;;;;4901109;29;20593;-74
2022/02/21 03:04:48;;;;;;;0.85;0.57;;;5.40;93.20;;;;;;4902543;29;20575;-73
2022/02/21 03:07:16;;;;;;;1.02;0.45;;;5.30;96.70;;;;;;4902914;29;20196;-73
2022/02/21 03:09:42;;;;;;;0.63;0.43;;;5.40;99.50;;;;;;4901526;29;20653;-74
2022/02/21 03:12:10;;;;;;;2.55;0.60;;;5.60;99.30;;;;;;4900952;29;20228;-74
2022/02/21 03:14:38;;;;;;;3.00;0.40;;;5.70;97.20;;;;;;4900098;29;20212;-74
2022/02/21 03:17:05;;;;;;;1.33;0.55;;;5.70;95.10;;;;;;4901083;29;20230;-74
2022/02/21 03:19:32;;;;;;;1.23;0.55;;;5.70;95.00;;;;;;4901913;29;20232;-73
2022/02/21 03:22:01;;;;;;;2.85;0.90;;;5.70;94.30;;;;;;4903176;29;20236;-74
2022/02/21 03:24:28;;;;;;;3.30;0.82;;;5.60;93.50;;;;;;4903272;29;20673;-73
2022/02/21 03:26:55;;;;;;;5.47;1.10;;;5.50;89.80;;;;;;4904749;29;20213;-74
2022/02/21 03:29:22;;;;;;;2.28;0.50;;;5.60;84.40;;;;;;4903424;29;20213;-74
2022/02/21 03:31:50;;;;;;;3.10;0.90;;;5.60;84.60;;;;;;4899920;29;20240;-74
2022/02/21 03:34:17;;;;;;;2.53;0.55;;;5.60;82.50;;;;;;4900437;29;20208;-74
2022/02/21 03:36:44;;;;;;;0.68;0.65;;;5.70;82.00;;;;;;4899950;29;20691;-73
2022/02/21 03:39:11;;;;;;;3.13;0.60;;;5.70;76.80;;;;;;4899195;29;20640;-74
2022/02/21 03:41:37;;;;;;;3.72;0.93;;;5.70;75.70;;;;;;4899308;29;20712;-74
2022/02/21 03:44:05;;;;;;;1.60;1.00;;;5.70;70.70;;;;;;4899452;29;20216;-74
2022/02/21 03:46:32;;;;;;;1.65;0.68;;;5.80;67.30;;;;;;4899548;29;20219;-73
2022/02/21 03:49:00;;;;;;;3.38;1.20;;;5.90;65.00;;;;;;4899309;29;20205;-74
2022/02/21 03:51:27;;;;;;;6.07;1.50;;;5.90;65.00;;;;;;4900163;29;20616;-74
2022/02/21 03:53:54;;;;;;;1.42;0.85;;;5.90;65.00;;;;;;4899953;29;20306;-73
2022/02/21 03:56:21;;;;;;;1.58;0.77;;;6.10;61.80;;;;;;4899756;29;20567;-73
2022/02/21 03:58:48;;;;;;;2.03;1.13;;;6.10;60.80;;;;;;4899394;29;20221;-74
2022/02/21 04:01:15;;;;;;;2.75;0.80;;;6.10;61.20;;;;;;4900507;29;20319;-73
2022/02/21 04:03:42;;;;;;;1.55;0.95;;;6.20;62.20;;;;;;4900391;29;20208;-74
2022/02/21 04:06:10;;;;;;;3.67;0.93;;;6.10;62.20;;;;;;4899153;29;20244;-74
2022/02/21 04:08:38;;;;;;;3.85;1.33;;;6.10;64.50;;;;;;4898746;29;20208;-73
2022/02/21 04:11:05;;;;;;;1.48;0.82;;;6.00;64.70;;;;;;4898748;29;20213;-73
2022/02/21 04:13:32;;;;;;;3.05;0.98;;;6.00;65.10;;;;;;4898802;29;20243;-75
2022/02/21 04:15:59;;;;;;;3.58;1.00;;;6.00;66.10;;;;;;4899513;29;20216;-72
2022/02/21 04:18:26;;;;;;;3.47;1.10;;;6.00;68.00;;;;;;4899074;29;20233;-73
2022/02/21 04:20:53;;;;;;;1.20;0.88;;;5.90;69.60;;;;;;4899023;29;20213;-73
2022/02/21 04:23:22;;;;;;;2.63;1.10;;;5.80;70.60;;;;;;4899271;29;20216;-74
2022/02/21 04:25:49;;;;;;;5.35;1.20;;;5.80;72.90;;;;;;4899164;29;20753;-74
2022/02/21 04:28:18;;;;;;;2.95;1.13;;;5.70;73.60;;;;;;4899011;29;20208;-73
2022/02/21 04:30:45;;;;;;;5.38;1.27;;;5.70;75.20;;;;;;4903548;29;20210;-74
2022/02/21 04:33:12;;;;;;;4.38;1.27;;;5.70;77.30;;;;;;4901418;29;20557;-72
2022/02/21 04:35:39;;;;;;;5.50;1.20;;;5.70;77.80;;;;;;4900194;29;20221;-73
2022/02/21 04:38:06;;;;;;;9.07;1.55;;;5.60;78.90;;;;;;4899314;29;20231;-75
2022/02/21 04:40:34;;;;;;;5.85;1.92;;;5.60;79.70;;;;;;4899758;29;20702;-74
2022/02/21 04:43:01;;;;;;;2.78;1.15;;;5.60;80.40;;;;;;4902460;29;20231;-73
2022/02/21 04:45:28;;;;;;;4.45;1.02;;;5.60;81.00;;;;;;4911598;29;20213;-73
2022/02/21 04:47:55;;;;;;;2.85;1.50;;;5.50;81.60;;;;;;4906219;29;20599;-75
2022/02/21 04:50:22;;;;;;;3.35;1.50;;;5.50;81.30;;;;;;4899786;29;20299;-75
2022/02/21 04:52:49;;;;;;;6.10;1.40;;;5.50;80.80;;;;;;4912034;29;20224;-73
2022/02/21 04:55:16;;;;;;;4.50;0.80;;;5.50;81.80;;;;;;4913150;29;20217;-74
2022/02/21 04:57:45;;;;;;;3.67;1.30;;;5.50;80.50;;;;;;4906897;29;20256;-75
2022/02/21 05:00:14;;;;;;;5.78;1.50;;;5.50;79.80;;;;;;4912724;29;20220;-74
2022/02/21 05:02:41;;;;;;;4.72;1.42;;;5.50;78.70;;;;;;4889680;29;20366;-73
2022/02/21 05:05:10;;;;;;;4.95;1.55;;;5.60;77.80;;;;;;4881492;29;20320;-73
2022/02/21 05:07:38;;;;;;;3.92;1.40;;;5.60;77.70;;;;;;4880610;29;20206;-73
2022/02/21 05:10:06;;;;;;;7.28;1.77;;;5.60;77.70;;;;;;4880390;29;20214;-74
2022/02/21 05:12:32;;;;;;;3.53;1.42;;;5.60;76.70;;;;;;4880010;29;20237;-75
2022/02/21 05:15:02;;;;;;;3.33;1.50;;;5.60;75.10;;;;;;4880830;29;20217;-74
2022/02/21 05:17:29;;;;;;;5.15;1.35;;;5.70;73.60;;;;;;4879413;29;20649;-75
2022/02/21 05:19:56;;;;;;;3.95;1.38;;;5.70;71.40;;;;;;4880110;29;20589;-74
2022/02/21 05:22:23;;;;;;;3.17;1.33;;;5.80;69.30;;;;;;4880592;29;20315;-74
2022/02/21 05:24:50;;;;;;;5.82;1.17;;;5.80;66.40;;;;;;4881554;29;20256;-74
2022/02/21 05:27:18;;;;;;;6.93;2.20;;;6.00;62.10;;;;;;4895529;29;20204;-74
2022/02/21 05:29:45;;;;;;;5.45;1.95;;;6.00;59.40;;;;;;4900043;29;20298;-74
2022/02/21 05:32:13;;;;;;;11.30;2.22;;;6.10;56.30;;;;;;4899675;29;20244;-73
2022/02/21 05:34:41;;;;;;;8.52;2.22;;;6.20;56.40;;;;;;4899463;29;20212;-73
2022/02/21 05:37:08;;;;;;;9.68;2.47;;;6.20;56.40;;;;;;4898383;29;20240;-74
2022/02/21 05:39:35;;;;;;;2.80;1.40;;;6.20;56.40;;;;;;4899504;29;20213;-76
2022/02/21 05:42:03;;;;;;;3.15;1.25;;;6.10;56.80;;;;;;4898634;29;20666;-73
2022/02/21 05:44:29;;;;;;;5.97;1.90;;;6.10;58.00;;;;;;4901694;29;20304;-73
2022/02/21 05:46:56;;;;;;;11.90;2.08;;;6.10;56.30;;;;;;4903035;29;20255;-73
2022/02/21 05:49:24;;;;;;;6.57;2.00;;;6.20;56.40;;;;;;4903658;29;20273;-73
2022/02/21 05:51:51;;;;;;;4.90;1.95;;;6.10;53.90;;;;;;4902940;29;20267;-74
2022/02/21 05:54:18;;;;;;;7.35;1.90;;;6.10;54.20;;;;;;4899067;29;20691;-76
2022/02/21 05:56:45;;;;;;;10.55;1.63;;;6.20;54.40;;;;;;4898642;29;20298;-74
2022/02/21 05:59:12;;;;;;;6.07;1.65;;;6.10;56.30;;;;;;4899862;29;20633;-74
2022/02/21 06:01:39;;;;;;;6.20;1.80;;;6.00;56.20;;;;;;4900113;29;20269;-74
2022/02/21 06:04:06;;;;;;;6.25;1.85;;;6.00;56.90;;;;;;4899383;29;20283;-76
2022/02/21 06:06:35;;;;;;;8.15;1.98;;;5.90;57.50;;;;;;4900528;29;20213;-72
2022/02/21 06:09:02;;;;;;;6.80;2.28;;;5.90;56.10;;;;;;4899592;29;20222;-72
2022/02/21 06:11:29;;;;;;;6.47;1.60;;;5.90;54.50;;;;;;4900109;29;20316;-73
2022/02/21 06:13:56;;;;;;;11.63;2.25;;;6.00;53.50;;;;;;4899183;29;20209;-72
2022/02/21 06:16:23;;;;;;;7.00;2.15;;;5.90;53.70;;;;;;4899890;29;20220;-74
2022/02/21 06:18:50;;;;;;;7.43;1.77;;;5.90;52.70;;;;;;4902223;29;20319;-73
2022/02/21 06:21:17;;;;;;;6.85;1.83;;;5.90;52.20;;;;;;4899673;29;20318;-74
2022/02/21 06:23:45;;;;;;;11.93;2.30;;;5.90;52.50;;;;;;4898276;29;20204;-74
2022/02/21 06:26:12;;;;;;;6.78;2.00;;;5.80;53.70;;;;;;4898351;29;20307;-73
2022/02/21 06:28:39;;;;;;;12.52;1.95;;;5.80;55.00;;;;;;4900739;29;20213;-73
2022/02/21 06:31:08;;;;;;;9.57;2.15;;;5.70;55.90;;;;;;4898129;29;20285;-74
2022/02/21 06:33:35;;;;;;;9.48;2.58;;;5.70;55.70;;;;;;4897374;29;20674;-74
2022/02/21 06:36:02;;;;;;;9.27;2.30;;;5.60;54.30;;;;;;4897441;29;20607;-74
2022/02/21 06:38:29;;;;;;;8.32;1.92;;;5.60;53.40;;;;;;4897570;29;20698;-74
2022/02/21 06:40:57;;;;;;;7.18;2.10;;;5.70;52.60;;;;;;4896994;29;20210;-73
2022/02/21 06:43:24;;;;;;;8.90;2.10;;;5.70;51.60;;;;;;4897990;29;20249;-74
2022/02/21 06:45:50;;;;;;;10.30;2.03;;;5.60;51.50;;;;;;4897232;29;20213;-74
2022/02/21 06:48:17;;;;;;;5.18;1.63;;;5.60;51.70;;;;;;4897337;29;20303;-74
2022/02/21 06:50:44;;;;;;;7.13;2.63;;;5.60;52.00;;;;;;4899794;29;20212;-75
2022/02/21 06:53:11;;;;;;;7.63;2.17;;;5.50;50.40;;;;;;4900718;29;20244;-73
2022/02/21 06:55:38;;;;;;;11.23;2.58;;;5.60;50.60;;;;;;4901244;29;20222;-74
2022/02/21 06:58:10;;;;;;;7.00;1.80;;;5.60;49.70;;;;;;4900640;29;20236;-73
2022/02/21 07:00:37;;;;;;;8.00;2.38;;;5.60;49.20;;;;;;4900992;29;20260;-73
2022/02/21 07:03:05;;;;;;;5.45;2.08;;;5.60;48.80;;;;;;4918532;23;20262;-82
2022/02/21 07:05:32;;;;;;;7.32;2.00;;;5.70;48.30;;;;;;4912229;29;20246;-81
2022/02/21 07:08:00;;;;;;;5.22;2.17;;;5.70;48.50;;;;;;4910861;29;20660;-79
2022/02/21 07:10:28;;;;;;;6.55;2.08;;;5.70;48.90;;;;;;4910447;29;20227;-80
2022/02/21 07:13:01;;;;;;;7.93;2.67;;;5.70;48.20;;;;;;4900488;29;20232;-81
2022/02/21 07:15:42;;;;;;;8.05;2.72;;;5.80;48.40;;;;;;4896023;29;20198;-81
2022/02/21 07:18:11;;;;;;;13.68;3.15;;;5.80;48.80;;;;;;4892347;29;20280;-82
2022/02/21 07:20:39;;;;;;;9.40;2.15;;;5.80;48.00;;;;;;4893129;29;20273;-81
2022/02/21 07:23:06;;;;;;;7.18;2.47;;;5.90;49.00;;;;;;4895609;29;20233;-80
2022/02/21 07:25:34;;;;;;;11.38;3.17;;;5.80;49.30;;;;;;4898123;29;20212;-82
2022/02/21 07:28:01;;;;;;;11.30;2.28;;;5.90;49.80;;;;;;4900930;29;20220;-82
2022/02/21 07:30:30;;;;;;;13.60;3.15;;;5.90;49.90;;;;;;4901337;29;20220;-82
2022/02/21 07:32:59;;;;;;;7.38;3.05;;;5.90;50.50;;;;;;4899576;29;20252;-82
2022/02/21 08:59:30;;;;;;;7.13;2.22;;;6.80;49.40;;;;;;4878482;29;20221;-81
2022/02/21 09:03:02;;;;;;;10.48;2.20;;;6.90;49.10;;;;;;4881232;29;20301;-80
2022/02/21 09:08:52;;;;;;;4.40;1.45;;;7.00;48.20;;;;;;4829936;24;20213;-73
2022/02/21 09:11:19;;;;;;;4.50;1.42;;;6.80;48.50;;;;;;4884250;29;20292;-72
2022/02/21 09:13:45;;;;;;;2.05;1.02;;;6.70;49.20;;;;;;4895600;29;20207;-73
2022/02/21 09:16:15;;;;;;;7.85;1.38;;;6.60;50.60;;;;;;4898268;29;20265;-72
2022/02/21 09:18:42;;;;;;;1.60;1.13;;;6.50;51.90;;;;;;4894295;29;20332;-72
2022/02/21 09:21:09;;;;;;;3.25;0.75;;;6.40;52.70;;;;;;4895932;29;20233;-73
2022/02/21 09:23:35;;;;;;;1.60;0.90;;;6.40;53.00;;;;;;4902945;29;20201;-74
2022/02/21 09:26:04;;;;;;;2.42;1.30;;;6.40;53.30;;;;;;4910297;29;20220;-72
2022/02/21 09:28:31;;;;;;;6.68;1.60;;;6.40;53.60;;;;;;4891078;29;20237;-73
2022/02/21 09:30:58;;;;;;;2.53;1.08;;;6.50;54.10;;;;;;4880903;29;20308;-72
2022/02/21 09:33:26;;;;;;;9.05;1.60;;;6.60;54.60;;;;;;4879541;29;20297;-72
2022/02/21 09:35:53;;;;;;;7.80;2.03;;;6.70;53.80;;;;;;4878817;29;20570;-72
2022/02/21 09:38:20;;;;;;;7.10;1.15;;;6.60;54.20;;;;;;4880123;29;20649;-73
2022/02/21 09:40:50;;;;;;;4.53;2.05;;;6.60;54.30;;;;;;4878617;29;20717;-73
2022/02/21 09:43:25;;;;;;;9.82;2.13;;;6.60;54.70;;;;;;4893367;29;20239;-73
2022/02/21 09:45:57;;;;;;;5.32;1.70;;;6.60;54.60;;;;;;4878757;29;20216;-72
2022/02/21 09:48:26;;;;;;;8.38;2.50;;;6.50;55.10;;;;;;4876649;29;20218;-74
2022/02/21 09:50:58;;;;;;;6.30;2.05;;;6.50;56.60;;;;;;4877607;29;20666;-75
2022/02/21 09:53:27;;;;;;;8.55;1.40;;;6.40;56.60;;;;;;4877828;29;20209;-74
2022/02/21 09:55:54;;;;;;;9.88;2.90;;;6.40;59.10;;;;;;4877203;29;20214;-75
2022/02/21 09:58:23;;;;;;;8.02;2.13;;;6.20;60.90;;;;;;4876842;29;20233;-75
2022/02/21 10:00:50;;;;;;;11.35;1.85;;;6.00;65.10;;;;;;4877787;29;20258;-74
2022/02/21 10:03:42;;;;;;;5.05;1.77;;;5.90;67.20;;;;;;4878562;29;20589;-75
2022/02/21 10:06:20;;;;;;;5.90;2.35;;;5.80;69.00;;;;;;4876616;29;20577;-72
2022/02/21 10:08:59;;;;;;;10.32;2.70;;;5.80;69.50;;;;;;4883376;29;20624;-74
2022/02/21 10:11:29;;;;;;;7.85;2.00;;;5.80;68.90;;;;;;4879530;29;20208;-73
2022/02/21 10:13:59;;;;;;;10.07;1.80;;;5.90;69.40;;;;;;4881964;29;20207;-73
2022/02/21 10:16:26;;;;;;;9.27;2.20;;;5.80;69.30;;;;;;4875318;29;20209;-73
2022/02/21 10:19:17;;;;;;;11.15;2.22;;;5.80;68.30;;;;;;4880923;29;20232;-72
2022/02/21 10:21:59;;;;;;;9.52;2.30;;;5.80;67.30;;;;;;4881376;29;20220;-72
2022/02/21 10:24:27;;;;;;;7.47;2.05;;;5.90;65.90;;;;;;4886074;29;20205;-72
2022/02/21 10:26:57;;;;;;;7.55;1.20;;;5.90;65.70;;;;;;4891107;29;20225;-73
2022/02/21 10:29:26;;;;;;;6.20;2.35;;;6.10;65.30;;;;;;4886564;29;20236;-73
2022/02/21 10:32:06;;;;;;;5.40;1.55;;;6.60;64.40;;;;;;4892284;29;20213;-73
2022/02/21 10:34:35;;;;;;;3.13;1.38;;;7.00;60.40;;;;;;4894365;29;20645;-73
2022/02/21 10:37:05;;;;;;;5.85;2.10;;;7.30;58.00;;;;;;4874105;29;20216;-73
2022/02/21 10:39:33;;;;;;;4.55;1.52;;;7.40;57.40;;;;;;4881933;29;20236;-74
2022/02/21 10:42:02;;;;;;;12.30;2.47;;;7.60;55.20;;;;;;4882291;29;20228;-73
2022/02/21 10:44:33;;;;;;;8.13;2.15;;;7.70;53.70;;;;;;4883172;29;20225;-73
2022/02/21 10:47:12;;;;;;;6.25;1.98;;;7.70;53.00;;;;;;4883616;29;20304;-74
2022/02/21 10:49:46;;;;;;;7.85;1.67;;;7.80;50.70;;;;;;4887008;29;20319;-73
2022/02/21 10:52:16;;;;;;;5.40;1.90;;;7.70;49.40;;;;;;4883383;29;20206;-72
2022/02/21 10:54:43;;;;;;;6.43;2.13;;;7.80;48.30;;;;;;4883716;29;20210;-72
2022/02/21 10:57:11;;;;;;;7.55;2.33;;;7.80;47.80;;;;;;4890781;29;20222;-75
2022/02/21 10:59:39;;;;;;;5.45;1.50;;;7.80;46.90;;;;;;4898658;29;20298;-75
2022/02/21 11:02:10;;;;;;;7.80;1.65;;;7.80;48.20;;;;;;4909973;29;20229;-73
2022/02/21 11:04:39;;;;;;;7.75;1.80;;;7.90;48.10;;;;;;4905691;29;20207;-73
2022/02/21 11:07:06;;;;;;;3.15;1.00;;;8.00;46.60;;;;;;4911188;29;20248;-73
2022/02/21 11:09:34;;;;;;;4.13;1.20;;;8.00;45.20;;;;;;4908371;29;20232;-73
2022/02/21 11:12:02;;;;;;;7.38;1.85;;;8.20;45.10;;;;;;4902722;29;20248;-73
2022/02/21 11:14:31;;;;;;;6.00;1.38;;;8.20;46.00;;;;;;4903043;29;20764;-72
2022/02/21 11:17:03;;;;;;;3.85;1.02;;;8.30;43.90;;;;;;4901145;29;20222;-73
2022/02/21 11:19:30;;;;;;;8.32;1.60;;;8.20;44.50;;;;;;4887237;29;20297;-73
2022/02/21 11:21:57;;;;;;;2.83;1.00;;;8.10;44.50;;;;;;4895219;29;20860;-72
2022/02/21 11:24:26;;;;;;;5.13;1.40;;;7.90;44.60;;;;;;4893981;29;20238;-72
2022/02/21 11:27:16;;;;;;;3.03;1.20;;;7.90;45.20;;;;;;4888878;29;20220;-73
2022/02/21 11:29:50;;;;;;;3.85;1.60;;;7.80;45.70;;;;;;4895721;29;20650;-72
2022/02/21 11:32:19;;;;;;;5.82;2.70;;;7.70;45.40;;;;;;4902197;29;20202;-73
2022/02/21 11:34:47;;;;;;;6.22;1.95;;;7.70;46.00;;;;;;4892258;29;20272;-73
2022/02/21 11:37:25;;;;;;;8.40;2.33;;;7.60;44.80;;;;;;4885819;29;20214;-73
2022/02/21 11:39:59;;;;;;;3.35;1.25;;;7.70;44.80;;;;;;4885694;29;20253;-74
2022/02/21 11:42:30;;;;;;;3.20;1.10;;;7.70;43.90;;;;;;4880799;29;20639;-74
2022/02/21 11:44:59;;;;;;;4.80;1.70;;;7.70;43.90;;;;;;4881363;29;20236;-75
2022/02/21 11:47:39;;;;;;;4.57;1.67;;;7.70;44.10;;;;;;4881402;29;20268;-75
2022/02/21 11:50:20;;;;;;;8.40;1.88;;;7.70;43.80;;;;;;4880027;29;20677;-75
2022/02/21 11:52:49;;;;;;;3.65;1.27;;;7.70;45.30;;;;;;4880447;29;20566;-74
2022/02/21 11:55:43;;;;;;;5.93;2.03;;;7.70;45.70;;;;;;4881002;29;20215;-74
2022/02/21 11:58:45;;;;;;;3.75;1.50;;;7.60;45.00;;;;;;4877238;29;20208;-73
2022/02/21 12:01:20;;;;;;;8.88;2.13;;;7.60;44.70;;;;;;4848709;29;20239;-74
2022/02/21 12:04:17;;;;;;;4.38;1.20;;;7.60;44.20;;;;;;4860925;29;20211;-74
2022/02/21 12:06:59;;;;;;;5.82;1.40;;;7.60;44.00;;;;;;4857514;29;20246;-72
2022/02/21 12:09:26;;;;;;;7.10;1.42;;;7.60;44.40;;;;;;4863072;29;20320;-74
2022/02/21 12:12:13;;;;;;;8.63;1.63;;;7.60;43.80;;;;;;4863159;29;20207;-74
2022/02/21 12:15:10;;;;;;;4.22;1.33;;;7.70;43.80;;;;;;4859975;29;20214;-73
2022/02/21 12:17:37;;;;;;;7.97;2.05;;;7.70;43.40;;;;;;4860171;29;20233;-74
2022/02/21 12:20:33;;;;;;;4.78;1.83;;;7.70;43.40;;;;;;4860267;29;20266;-75
2022/02/21 12:23:18;;;;;;;6.18;2.20;;;7.70;45.80;;;;;;4846600;29;20213;-74
2022/02/21 12:26:15;;;;;;;7.15;1.60;;;7.60;45.30;;;;;;4849728;29;20219;-74
2022/02/21 12:28:42;;;;;;;6.50;1.80;;;7.70;45.60;;;;;;4862094;29;20227;-74
2022/02/21 12:31:23;;;;;;;4.25;1.48;;;7.70;45.00;;;;;;4865489;29;20235;-74
2022/02/21 12:33:57;;;;;;;10.27;2.08;;;7.80;45.40;;;;;;4885962;29;20247;-73
2022/02/21 12:36:32;;;;;;;4.20;1.27;;;7.80;44.20;;;;;;4870829;29;20210;-73
2022/02/21 12:39:01;;;;;;;8.73;2.40;;;7.90;44.60;;;;;;4886780;29;20209;-74
2022/02/21 12:41:33;;;;;;;6.20;1.10;;;8.00;43.30;;;;;;4883443;29;20747;-73
2022/02/21 12:44:03;;;;;;;2.33;1.20;;;8.00;42.60;;;;;;4888391;29;20214;-74
2022/02/21 12:46:31;;;;;;;7.35;1.77;;;8.00;43.30;;;;;;4880034;29;20215;-74
2022/02/21 12:48:59;;;;;;;5.20;1.50;;;8.00;43.20;;;;;;4879739;29;20671;-74
2022/02/21 12:51:29;;;;;;;4.68;1.85;;;8.00;44.20;;;;;;4881232;29;20658;-74
2022/02/21 12:54:03;;;;;;;5.03;1.20;;;7.90;44.90;;;;;;4881811;29;20262;-74
2022/02/21 12:56:40;;;;;;;2.90;1.92;;;7.80;46.40;;;;;;4881142;29;20301;-74
2022/02/21 12:59:07;;;;;;;5.63;1.55;;;7.80;47.60;;;;;;4883318;29;20436;-75
2022/02/21 13:01:34;;;;;;;6.30;1.90;;;7.70;47.10;;;;;;4881553;29;20210;-74
2022/02/21 13:04:01;;;;;;;6.72;1.58;;;7.70;47.20;;;;;;4881326;29;20284;-78
2022/02/21 13:06:30;;;;;;;7.30;1.38;;;7.70;46.40;;;;;;4880785;29;20226;-74
2022/02/21 13:08:57;;;;;;;5.07;1.00;;;7.80;46.40;;;;;;4877115;29;20245;-74
2022/02/21 13:11:25;;;;;;;5.45;1.85;;;7.80;46.00;;;;;;4872343;29;20211;-74
2022/02/21 13:13:52;;;;;;;5.38;1.63;;;7.80;44.80;;;;;;4873879;29;20392;-74
2022/02/21 13:16:20;;;;;;;2.55;1.27;;;7.90;45.20;;;;;;4877478;29;20726;-74
2022/02/21 13:18:52;;;;;;;3.90;1.15;;;7.90;44.60;;;;;;4878351;29;20218;-75
2022/02/21 13:21:33;;;;;;;3.20;1.77;;;7.90;44.30;;;;;;4878202;29;20219;-75
2022/02/21 13:24:00;;;;;;;7.47;1.58;;;7.90;43.60;;;;;;4878466;29;20308;-74
2022/02/21 13:26:27;;;;;;;7.63;1.08;;;7.90;44.40;;;;;;4876131;29;20677;-73
2022/02/21 13:28:54;;;;;;;5.07;1.23;;;7.90;44.10;;;;;;4880221;29;20247;-74
2022/02/21 13:31:21;;;;;;;3.65;1.23;;;7.90;44.70;;;;;;4874785;29;20213;-74
2022/02/21 13:33:50;;;;;;;3.85;1.00;;;7.90;44.90;;;;;;4876160;29;20283;-74
2022/02/21 13:36:25;;;;;;;11.35;1.50;;;7.90;46.40;;;;;;4883295;29;20205;-73
2022/02/21 13:38:55;;;;;;;3.67;1.40;;;7.80;47.30;;;;;;4886153;29;20708;-74
2022/02/21 13:41:23;;;;;;;4.40;1.90;;;7.70;48.20;;;;;;4883101;29;20331;-73
2022/02/21 13:43:50;;;;;;;4.28;1.40;;;7.60;48.60;;;;;;4887836;29;20222;-73
2022/02/21 13:46:17;;;;;;;6.80;1.40;;;7.60;48.60;;;;;;4899666;29;20243;-73
2022/02/21 13:48:46;;;;;;;5.15;1.50;;;7.70;48.20;;;;;;4886206;29;20210;-73
2022/02/21 13:51:20;;;;;;;5.93;1.52;;;7.80;48.30;;;;;;4897900;29;20304;-73
2022/02/21 13:53:47;;;;;;;10.40;2.10;;;7.80;48.30;;;;;;4892522;29;20220;-72
2022/02/21 13:56:17;;;;;;;2.92;1.30;;;7.90;47.50;;;;;;4882214;29;20224;-73
2022/02/21 13:58:45;;;;;;;6.20;1.67;;;7.90;47.20;;;;;;4879721;29;20287;-73
2022/02/21 14:01:15;;;;;;;8.23;1.77;;;8.00;46.40;;;;;;4886016;29;20288;-73
2022/02/21 14:03:45;;;;;;;3.83;1.13;;;7.90;46.00;;;;;;4878825;29;20238;-74
2022/02/21 14:06:13;;;;;;;5.20;1.38;;;8.00;46.00;;;;;;4884219;29;20217;-72
2022/02/21 14:08:48;;;;;;;7.57;1.75;;;8.00;45.60;;;;;;4883252;29;20240;-73
2022/02/21 14:11:19;;;;;;;6.80;1.50;;;8.10;46.40;;;;;;4884477;29;20222;-73
2022/02/21 14:13:46;;;;;;;5.25;1.20;;;8.00;47.10;;;;;;4888606;29;20237;-74
2022/02/21 14:16:13;;;;;;;8.95;2.00;;;7.90;48.40;;;;;;4878870;29;20305;-74
2022/02/21 14:18:41;;;;;;;2.90;1.17;;;7.80;48.30;;;;;;4882664;29;20217;-73
2022/02/21 14:21:09;;;;;;;5.88;1.48;;;7.60;50.10;;;;;;4889361;29;20305;-74
2022/02/21 14:23:36;;;;;;;6.85;1.73;;;7.60;50.80;;;;;;4898322;29;20225;-73
2022/02/21 14:26:04;;;;;;;7.00;1.85;;;7.40;52.70;;;;;;4900096;29;20278;-73
2022/02/21 14:28:33;;;;;;;8.73;2.50;;;7.30;54.40;;;;;;4900368;29;20232;-72
2022/02/21 14:31:00;;;;;;;5.28;1.42;;;7.30;54.40;;;;;;4897823;29;20226;-73
2022/02/21 14:33:28;;;;;;;5.45;1.50;;;7.30;54.30;;;;;;4885032;29;20218;-73